Time;durP1;ratioP1;P1;durP2;ratioP2;P2;SDS_P1;SDS_P2;PMS_P1;PMS_P2;Temp;Humidity;BMP_temperature;BMP_pressure;BME280_temperature;BME280_humidity;BME280_pressure;Samples;Min_cycle;Max_cycle;Signal;HPM_P1;HPM_P2
2023/01/05 00:01:55;;;;;;;0.70;0.70;;;13.70;69.80;;;;;;5029254;28;20801;-58
2023/01/05 00:04:21;;;;;;;0.60;0.60;;;13.70;69.80;;;;;;5027454;28;20467;-58
2023/01/05 00:06:47;;;;;;;0.50;0.40;;;13.70;69.70;;;;;;5021082;28;20480;-58
2023/01/05 00:09:15;;;;;;;0.60;0.60;;;13.80;69.60;;;;;;5025533;28;20980;-58
2023/01/05 00:22:48;;;;;;;0.60;0.60;;;13.70;70.20;;;;;;5026899;28;20506;-58
2023/01/05 00:25:17;;;;;;;0.70;0.50;;;13.90;69.20;;;;;;5024400;28;20959;-58
2023/01/05 00:27:44;;;;;;;0.63;0.57;;;14.00;68.70;;;;;;5026149;28;20518;-58
2023/01/05 00:30:12;;;;;;;0.80;0.80;;;13.80;68.70;;;;;;5030245;28;20465;-58
2023/01/05 00:32:39;;;;;;;0.60;0.50;;;13.80;69.30;;;;;;5027782;28;20939;-58
2023/01/05 00:35:05;;;;;;;0.77;0.77;;;13.80;69.40;;;;;;5023042;28;20962;-58
2023/01/05 00:37:33;;;;;;;0.70;0.60;;;13.80;69.70;;;;;;5027476;28;20427;-58
2023/01/05 00:39:59;;;;;;;1.17;0.67;;;13.80;69.60;;;;;;5027604;28;20550;-58
2023/01/05 00:42:25;;;;;;;0.60;0.60;;;13.70;69.60;;;;;;5030670;28;20447;-57
2023/01/05 00:44:50;;;;;;;5.20;0.80;;;13.80;69.60;;;;;;5025582;28;20182;-58
2023/01/05 00:47:16;;;;;;;0.50;0.50;;;13.80;69.10;;;;;;5019376;28;20478;-57
2023/01/05 00:49:42;;;;;;;0.50;0.50;;;13.90;69.10;;;;;;5011655;28;20240;-58
2023/01/05 00:52:08;;;;;;;0.57;0.57;;;14.00;68.90;;;;;;5012707;28;20637;-58
2023/01/05 00:54:33;;;;;;;0.90;0.57;;;14.20;68.30;;;;;;5022635;28;20189;-58
2023/01/05 00:56:59;;;;;;;0.60;0.60;;;14.40;67.40;;;;;;5027583;28;20467;-57
2023/01/05 00:59:25;;;;;;;1.07;0.60;;;14.50;67.00;;;;;;5029426;28;20193;-59
2023/01/05 01:01:53;;;;;;;2.30;0.80;;;14.50;66.70;;;;;;5030125;28;20894;-58
2023/01/05 01:04:19;;;;;;;0.50;0.50;;;14.30;67.60;;;;;;5020936;28;20224;-58
2023/01/05 01:06:45;;;;;;;0.60;0.60;;;14.40;67.40;;;;;;5030953;28;20550;-58
2023/01/05 01:09:12;;;;;;;0.60;0.60;;;14.30;67.80;;;;;;5032786;28;20416;-58
2023/01/05 01:11:38;;;;;;;0.60;0.60;;;14.20;67.80;;;;;;5028759;28;20548;-58
2023/01/05 01:14:06;;;;;;;0.60;0.60;;;14.20;68.20;;;;;;5017903;28;20440;-58
2023/01/05 01:16:33;;;;;;;0.50;0.50;;;14.10;68.20;;;;;;5026411;28;20454;-58
2023/01/05 01:18:59;;;;;;;0.60;0.60;;;14.10;69.00;;;;;;5029464;28;20528;-58
2023/01/05 01:21:24;;;;;;;1.30;0.60;;;14.00;69.20;;;;;;5025108;28;20861;-58
2023/01/05 01:23:50;;;;;;;0.60;0.60;;;14.00;69.70;;;;;;5031177;28;20215;-58
2023/01/05 01:26:16;;;;;;;0.57;0.57;;;13.90;69.70;;;;;;5029905;28;20260;-58
2023/01/05 01:28:42;;;;;;;0.50;0.50;;;14.20;69.50;;;;;;5030263;28;20262;-58
2023/01/05 01:31:08;;;;;;;0.63;0.60;;;14.20;68.90;;;;;;5030297;28;20550;-58
2023/01/05 01:33:37;;;;;;;0.53;0.53;;;14.20;69.00;;;;;;5030933;28;20958;-58
2023/01/05 01:36:05;;;;;;;0.60;0.60;;;14.30;68.80;;;;;;5027257;28;20193;-58
2023/01/05 01:38:30;;;;;;;0.70;0.70;;;14.40;68.50;;;;;;5022695;28;20451;-58
2023/01/05 01:40:56;;;;;;;0.70;0.50;;;14.10;68.80;;;;;;5027591;28;20917;-58
2023/01/05 01:44:06;;;;;;;0.50;0.50;;;14.00;69.80;;;;;;5026158;28;20189;-58
2023/01/05 01:46:31;;;;;;;0.50;0.50;;;13.90;70.20;;;;;;5014262;28;20282;-58
2023/01/05 01:49:01;;;;;;;0.60;0.60;;;14.20;69.80;;;;;;5028773;28;20483;-58
2023/01/05 01:51:27;;;;;;;0.87;0.53;;;14.20;68.90;;;;;;5027266;28;20276;-58
2023/01/05 01:53:57;;;;;;;0.60;0.60;;;14.10;69.30;;;;;;5021324;28;20590;-58
2023/01/05 01:56:25;;;;;;;1.63;0.60;;;14.30;69.10;;;;;;5022449;28;20487;-58
2023/01/05 01:58:51;;;;;;;0.70;0.50;;;14.30;68.80;;;;;;5017441;28;20518;-58
2023/01/05 02:01:17;;;;;;;0.60;0.60;;;14.30;68.60;;;;;;5022800;28;20455;-58
2023/01/05 02:03:43;;;;;;;0.60;0.50;;;14.30;69.00;;;;;;5019802;28;20843;-58
2023/01/05 02:06:09;;;;;;;0.60;0.60;;;14.10;69.10;;;;;;5027369;28;20499;-58
2023/01/05 02:08:35;;;;;;;0.60;0.50;;;14.00;69.80;;;;;;5028412;28;20545;-58
2023/01/05 02:11:13;;;;;;;0.60;0.60;;;14.00;70.40;;;;;;5022593;28;20451;-58
2023/01/05 02:13:48;;;;;;;0.70;0.60;;;14.00;70.20;;;;;;5021562;28;21532;-58
2023/01/05 02:16:27;;;;;;;0.50;0.50;;;14.10;70.20;;;;;;5025531;28;20513;-58
2023/01/05 02:19:16;;;;;;;0.70;0.50;;;14.20;70.00;;;;;;5023150;28;20499;-58
2023/01/05 02:21:57;;;;;;;0.47;0.47;;;14.30;69.50;;;;;;5025745;28;20431;-58
2023/01/05 02:24:39;;;;;;;2.17;0.60;;;14.30;68.90;;;;;;5028548;28;20444;-59
2023/01/05 02:27:39;;;;;;;0.57;0.57;;;14.10;69.50;;;;;;5021883;28;20498;-58
2023/01/05 02:30:17;;;;;;;0.50;0.50;;;14.30;69.60;;;;;;5013927;28;20462;-58
2023/01/05 02:33:04;;;;;;;0.97;0.50;;;14.30;69.10;;;;;;5024924;28;21060;-58
2023/01/05 02:35:56;;;;;;;3.40;0.73;;;14.40;69.20;;;;;;5022838;28;20443;-58
2023/01/05 02:38:29;;;;;;;0.50;0.50;;;14.40;69.50;;;;;;5025369;28;20498;-58
2023/01/05 02:41:02;;;;;;;0.57;0.57;;;14.30;69.70;;;;;;5022299;28;20456;-58
2023/01/05 02:43:28;;;;;;;0.60;0.60;;;14.20;69.70;;;;;;5017291;28;20451;-58
2023/01/05 02:45:54;;;;;;;1.33;0.60;;;14.30;70.20;;;;;;5023347;28;20439;-58
2023/01/05 02:48:20;;;;;;;0.80;0.60;;;14.60;69.60;;;;;;5023744;28;20248;-58
2023/01/05 02:51:01;;;;;;;2.03;0.50;;;14.30;69.80;;;;;;5026252;28;20444;-58
2023/01/05 02:53:32;;;;;;;0.50;0.40;;;14.20;70.80;;;;;;5019303;28;20439;-58
2023/01/05 02:56:25;;;;;;;0.70;0.70;;;14.10;71.30;;;;;;5023925;28;20515;-58
2023/01/05 02:58:56;;;;;;;0.60;0.50;;;14.20;71.00;;;;;;5028415;28;20950;-58
2023/01/05 03:01:27;;;;;;;0.57;0.57;;;14.20;71.10;;;;;;5020282;28;20467;-58
2023/01/05 03:04:00;;;;;;;0.70;0.63;;;14.10;71.60;;;;;;5029475;28;20551;-58
2023/01/05 03:06:29;;;;;;;0.70;0.70;;;14.20;71.40;;;;;;5031586;28;20442;-58
2023/01/05 03:08:59;;;;;;;0.50;0.50;;;14.40;71.00;;;;;;5032482;28;20439;-58
2023/01/05 03:14:40;;;;;;;0.50;0.50;;;14.50;70.10;;;;;;5033127;28;20482;-58
2023/01/05 03:17:10;;;;;;;1.27;0.57;;;14.40;70.50;;;;;;5029210;28;20927;-58
2023/01/05 03:19:40;;;;;;;0.50;0.50;;;14.40;70.90;;;;;;5028327;28;20764;-58
2023/01/05 03:36:57;;;;;;;0.83;0.80;;;14.50;70.70;;;;;;5028447;28;21358;-58
2023/01/05 03:39:26;;;;;;;0.80;0.70;;;14.60;70.70;;;;;;5029333;28;20794;-58
2023/01/05 03:41:53;;;;;;;0.87;0.63;;;14.50;70.70;;;;;;5016293;28;20916;-58
2023/01/05 03:44:19;;;;;;;0.60;0.60;;;14.50;70.50;;;;;;5024791;28;20467;-58
2023/01/05 03:46:45;;;;;;;0.60;0.53;;;14.50;70.80;;;;;;5032890;28;20570;-58
2023/01/05 03:49:11;;;;;;;0.80;0.70;;;14.60;70.80;;;;;;5029706;28;20515;-58
2023/01/05 03:51:36;;;;;;;0.70;0.63;;;14.70;70.30;;;;;;5023500;28;20186;-58
2023/01/05 03:54:02;;;;;;;1.47;1.03;;;14.70;69.80;;;;;;5026714;28;20190;-58
2023/01/05 03:56:28;;;;;;;1.10;0.80;;;14.70;69.60;;;;;;5023083;28;20255;-58
2023/01/05 03:58:53;;;;;;;1.00;0.80;;;14.70;70.10;;;;;;5023494;28;20601;-58
2023/01/05 04:01:19;;;;;;;0.77;0.60;;;14.70;69.80;;;;;;5025833;28;20185;-58
2023/01/05 04:03:45;;;;;;;0.90;0.80;;;14.60;70.30;;;;;;5030041;28;20235;-58
2023/01/05 04:06:10;;;;;;;0.70;0.70;;;14.60;70.70;;;;;;5026682;28;20186;-58
2023/01/05 04:08:36;;;;;;;1.00;0.87;;;14.70;70.70;;;;;;5026318;28;20217;-59
2023/01/05 04:11:17;;;;;;;0.70;0.70;;;14.90;70.90;;;;;;5026060;28;20201;-58
2023/01/05 04:13:43;;;;;;;0.73;0.70;;;14.90;71.60;;;;;;5019784;28;20194;-58
2023/01/05 04:16:09;;;;;;;1.07;0.80;;;14.90;72.10;;;;;;5023050;28;20490;-58
2023/01/05 04:18:34;;;;;;;0.90;0.90;;;15.00;72.10;;;;;;5026059;28;20267;-58
2023/01/05 04:21:00;;;;;;;0.97;0.80;;;15.10;71.50;;;;;;5022188;28;20288;-59
2023/01/05 04:23:26;;;;;;;6.43;1.00;;;15.10;71.70;;;;;;5023751;28;20308;-59
2023/01/05 04:25:51;;;;;;;1.00;0.90;;;15.20;71.50;;;;;;5027836;28;20189;-59
2023/01/05 04:28:17;;;;;;;1.00;0.60;;;15.40;71.00;;;;;;5023369;28;20648;-59
2023/01/05 04:30:43;;;;;;;1.50;0.90;;;15.50;70.40;;;;;;5019776;28;20205;-59
2023/01/05 04:33:10;;;;;;;0.60;0.60;;;15.30;70.60;;;;;;5024730;28;20279;-59
2023/01/05 04:35:35;;;;;;;1.70;1.03;;;15.20;71.30;;;;;;5020745;28;20443;-59
2023/01/05 04:38:01;;;;;;;1.37;1.27;;;15.40;70.70;;;;;;5020460;28;20436;-59
2023/01/05 04:40:26;;;;;;;1.57;1.40;;;15.60;70.10;;;;;;5024510;28;20198;-59
2023/01/05 04:42:52;;;;;;;1.80;1.60;;;15.70;69.50;;;;;;5026303;28;20315;-59
2023/01/05 04:45:18;;;;;;;3.00;2.37;;;15.80;69.40;;;;;;5027129;28;20186;-59
2023/01/05 04:47:43;;;;;;;5.10;2.60;;;15.70;69.30;;;;;;5023423;28;20355;-59
2023/01/05 04:50:09;;;;;;;3.23;1.50;;;15.60;69.40;;;;;;5020193;28;20201;-59
2023/01/05 04:52:35;;;;;;;3.13;2.20;;;15.50;70.00;;;;;;5020179;28;21564;-59
2023/01/05 04:55:00;;;;;;;1.73;1.63;;;15.50;69.70;;;;;;5027635;28;20189;-59
2023/01/05 04:57:26;;;;;;;1.40;1.30;;;15.40;70.10;;;;;;5018136;28;20205;-59
2023/01/05 04:59:52;;;;;;;2.00;1.27;;;15.60;69.70;;;;;;5028640;28;20648;-59
2023/01/05 05:02:17;;;;;;;2.50;1.50;;;15.40;69.80;;;;;;5022791;28;20661;-59
2023/01/05 05:04:43;;;;;;;1.60;1.50;;;15.50;70.40;;;;;;5020290;28;20229;-59
2023/01/05 05:07:08;;;;;;;1.50;1.10;;;15.50;70.60;;;;;;5018456;28;20225;-59
2023/01/05 05:09:34;;;;;;;2.67;1.30;;;15.70;69.90;;;;;;5023564;28;20332;-59
2023/01/05 05:11:59;;;;;;;1.27;1.17;;;15.80;70.20;;;;;;5019054;28;20190;-59
2023/01/05 05:14:25;;;;;;;1.57;1.47;;;15.70;70.60;;;;;;5023150;28;20185;-61
2023/01/05 05:16:51;;;;;;;1.40;1.30;;;15.50;71.50;;;;;;5020855;28;20526;-59
2023/01/05 05:19:16;;;;;;;1.60;1.03;;;15.30;72.90;;;;;;5019323;28;20247;-60
2023/01/05 05:21:42;;;;;;;1.90;1.60;;;15.40;73.40;;;;;;5019624;28;20267;-60
2023/01/05 05:24:07;;;;;;;1.53;1.40;;;15.50;72.80;;;;;;5025172;28;20536;-59
2023/01/05 05:26:33;;;;;;;1.20;1.00;;;15.70;72.50;;;;;;5023218;28;20274;-59
2023/01/05 05:28:58;;;;;;;0.80;0.80;;;15.80;72.20;;;;;;5022496;28;20327;-60
2023/01/05 05:31:25;;;;;;;0.60;0.50;;;15.80;72.20;;;;;;5023851;28;20193;-60
2023/01/05 05:33:50;;;;;;;1.47;0.70;;;15.80;71.80;;;;;;5018540;28;20260;-60
2023/01/05 05:36:19;;;;;;;0.60;0.60;;;15.80;72.90;;;;;;5022004;28;20459;-60
2023/01/05 05:38:44;;;;;;;0.60;0.57;;;15.80;72.80;;;;;;5025615;28;20280;-59
2023/01/05 05:41:10;;;;;;;0.50;0.50;;;15.90;72.40;;;;;;5022530;28;20803;-60
2023/01/05 05:43:35;;;;;;;0.77;0.60;;;15.70;72.60;;;;;;5021157;28;20270;-60
2023/01/05 05:46:01;;;;;;;0.60;0.60;;;15.40;73.70;;;;;;5025126;28;20189;-59
2023/01/05 05:48:27;;;;;;;0.50;0.40;;;15.10;74.70;;;;;;5026747;28;20548;-59
2023/01/05 05:50:52;;;;;;;0.50;0.50;;;14.60;76.50;;;;;;5025250;28;20916;-59
2023/01/05 05:53:18;;;;;;;2.00;0.60;;;14.40;76.90;;;;;;5024958;28;20217;-59
2023/01/05 05:55:48;;;;;;;0.50;0.50;;;14.50;77.20;;;;;;5022635;28;20202;-59
2023/01/05 05:58:14;;;;;;;0.67;0.60;;;14.30;77.30;;;;;;5027064;28;20188;-59
2023/01/05 06:00:40;;;;;;;0.83;0.73;;;14.30;77.10;;;;;;5026104;28;20943;-60
2023/01/05 06:03:06;;;;;;;0.63;0.63;;;14.20;76.10;;;;;;5022909;28;20487;-59
2023/01/05 06:05:31;;;;;;;1.00;0.80;;;14.00;75.50;;;;;;5029147;28;20259;-59
2023/01/05 06:07:57;;;;;;;1.00;0.70;;;14.20;76.50;;;;;;5026108;28;20228;-59
2023/01/05 06:10:22;;;;;;;1.37;0.90;;;14.40;75.50;;;;;;5026246;28;20559;-59
2023/01/05 06:12:48;;;;;;;3.60;1.07;;;14.50;74.40;;;;;;5027568;28;20283;-59
2023/01/05 06:15:14;;;;;;;1.93;0.83;;;14.30;73.90;;;;;;5029839;28;20228;-59
2023/01/05 06:17:39;;;;;;;1.20;0.80;;;14.10;73.70;;;;;;5024394;28;20185;-60
2023/01/05 06:20:07;;;;;;;1.70;0.77;;;14.20;74.30;;;;;;5022607;28;20845;-60
2023/01/05 06:22:33;;;;;;;2.10;0.87;;;14.40;73.70;;;;;;5029075;28;20217;-60
2023/01/05 06:24:58;;;;;;;2.03;0.90;;;14.20;71.90;;;;;;5023580;28;20936;-60
2023/01/05 06:27:24;;;;;;;1.97;0.90;;;14.40;72.20;;;;;;5022786;28;20617;-60
2023/01/05 06:29:49;;;;;;;2.70;0.90;;;14.20;71.90;;;;;;5016684;28;20184;-60
2023/01/05 06:32:15;;;;;;;3.03;1.20;;;14.40;71.50;;;;;;5017455;28;20209;-60
2023/01/05 06:34:40;;;;;;;2.50;1.20;;;14.50;71.30;;;;;;5026156;28;20196;-60
2023/01/05 06:37:06;;;;;;;2.30;0.80;;;14.30;71.00;;;;;;5022710;28;20198;-60
2023/01/05 06:39:32;;;;;;;3.57;1.43;;;14.20;71.70;;;;;;5018952;28;20186;-60
2023/01/05 06:41:57;;;;;;;1.33;1.10;;;14.30;71.80;;;;;;5025535;28;20251;-60
2023/01/05 06:44:23;;;;;;;3.80;1.10;;;14.40;71.60;;;;;;5027609;28;20332;-60
2023/01/05 06:46:48;;;;;;;2.60;1.27;;;14.30;72.00;;;;;;5031151;28;20681;-60
2023/01/05 06:49:14;;;;;;;7.50;2.10;;;14.20;73.30;;;;;;5016968;28;20248;-60
2023/01/05 06:51:39;;;;;;;2.53;1.50;;;14.20;74.00;;;;;;5026326;28;20185;-60
2023/01/05 06:54:06;;;;;;;4.00;1.87;;;14.40;73.70;;;;;;5031986;28;20190;-60
2023/01/05 06:56:31;;;;;;;3.07;2.30;;;14.40;73.60;;;;;;5031180;28;20546;-60
2023/01/05 06:58:57;;;;;;;5.23;1.43;;;14.50;72.70;;;;;;5024607;28;20435;-60
2023/01/05 07:01:22;;;;;;;4.93;1.60;;;14.40;72.70;;;;;;5028696;28;20536;-60
2023/01/05 07:03:48;;;;;;;2.03;1.27;;;14.40;72.80;;;;;;5032201;28;20304;-60
2023/01/05 07:06:14;;;;;;;3.47;1.50;;;14.30;73.20;;;;;;5033118;28;20581;-60
2023/01/05 07:08:40;;;;;;;3.70;1.40;;;14.40;73.40;;;;;;5026595;28;20217;-60
2023/01/05 07:11:06;;;;;;;4.07;1.10;;;14.40;74.50;;;;;;5026715;28;20421;-60
2023/01/05 07:13:31;;;;;;;3.63;1.10;;;14.30;75.50;;;;;;5032868;28;20290;-60
2023/01/05 07:15:57;;;;;;;3.67;1.40;;;14.50;75.30;;;;;;5028312;28;20196;-60
2023/01/05 07:18:22;;;;;;;2.87;1.43;;;14.60;74.50;;;;;;5028640;28;20606;-60
2023/01/05 07:20:48;;;;;;;5.20;1.50;;;14.50;74.40;;;;;;5024801;28;20193;-60
2023/01/05 07:23:14;;;;;;;3.10;1.63;;;14.50;74.50;;;;;;5026493;28;20251;-60
2023/01/05 07:25:39;;;;;;;2.33;1.37;;;14.70;74.10;;;;;;5031773;28;20225;-60
2023/01/05 07:28:05;;;;;;;5.10;1.43;;;14.60;73.80;;;;;;5027413;28;20324;-60
2023/01/05 07:30:30;;;;;;;2.50;1.27;;;14.70;74.00;;;;;;5029379;28;20205;-60
2023/01/05 07:32:59;;;;;;;10.47;2.53;;;14.40;74.10;;;;;;5026066;28;20209;-60
2023/01/05 07:35:26;;;;;;;3.23;1.60;;;14.60;73.10;;;;;;5024639;28;20197;-60
2023/01/05 07:37:55;;;;;;;2.50;1.07;;;14.60;72.30;;;;;;5027246;28;20443;-60
2023/01/05 07:40:20;;;;;;;5.00;1.60;;;14.50;72.20;;;;;;5024640;28;20586;-60
2023/01/05 07:42:53;;;;;;;7.10;1.80;;;14.60;71.80;;;;;;5026592;28;20562;-60
2023/01/05 07:45:20;;;;;;;2.60;1.50;;;14.70;71.40;;;;;;5025160;28;20277;-60
2023/01/05 07:47:45;;;;;;;1.50;1.40;;;14.70;70.80;;;;;;5027553;28;20479;-60
2023/01/05 07:50:12;;;;;;;1.67;1.30;;;14.70;70.30;;;;;;5033829;28;20562;-60
2023/01/05 07:52:38;;;;;;;4.53;1.30;;;14.60;69.90;;;;;;5023564;28;20428;-60
2023/01/05 07:55:04;;;;;;;2.87;1.60;;;14.60;69.90;;;;;;5024589;28;21239;-60
2023/01/05 07:57:30;;;;;;;2.90;1.50;;;14.60;70.10;;;;;;5029935;28;20193;-60
2023/01/05 07:59:56;;;;;;;3.97;1.87;;;14.80;69.90;;;;;;5030417;28;20432;-60
2023/01/05 08:02:22;;;;;;;4.30;1.70;;;14.90;69.00;;;;;;5032108;28;20640;-60
2023/01/05 08:04:47;;;;;;;2.90;1.57;;;15.00;68.50;;;;;;5032676;28;20584;-60
2023/01/05 08:07:14;;;;;;;8.60;3.20;;;15.00;67.90;;;;;;5029390;28;20220;-60
2023/01/05 08:12:24;;;;;;;3.03;1.50;;;14.90;67.80;;;;;;5030358;28;21031;-60
2023/01/05 08:14:50;;;;;;;3.30;1.33;;;14.80;67.40;;;;;;5020988;28;20421;-60
2023/01/05 08:17:15;;;;;;;6.30;2.47;;;14.90;68.00;;;;;;5020244;28;20192;-60
2023/01/05 08:19:41;;;;;;;2.50;1.10;;;15.10;67.40;;;;;;5033923;28;20235;-60
2023/01/05 08:22:07;;;;;;;5.67;1.70;;;14.90;67.50;;;;;;5030881;28;20202;-60
2023/01/05 08:24:32;;;;;;;2.37;1.40;;;15.00;67.00;;;;;;5031924;28;20185;-60
2023/01/05 08:26:58;;;;;;;3.33;1.53;;;14.70;66.70;;;;;;5029724;28;20605;-61
2023/01/05 08:29:23;;;;;;;2.57;1.23;;;14.60;67.00;;;;;;5031718;28;20208;-60
2023/01/05 08:31:49;;;;;;;3.67;1.50;;;14.50;66.50;;;;;;5031012;28;20190;-59
2023/01/05 08:34:14;;;;;;;4.10;1.20;;;14.40;66.20;;;;;;5032360;28;20181;-59
2023/01/05 08:36:40;;;;;;;6.67;1.87;;;14.40;65.90;;;;;;5026828;28;20213;-60
2023/01/05 08:39:08;;;;;;;5.90;1.37;;;14.50;65.70;;;;;;5027102;28;20276;-60
2023/01/05 08:41:36;;;;;;;4.50;1.50;;;14.40;65.70;;;;;;5017033;28;20201;-60
2023/01/05 08:44:11;;;;;;;8.37;4.53;;;14.30;65.80;;;;;;5027394;28;20435;-60
2023/01/05 08:46:37;;;;;;;12.20;1.50;;;14.30;65.40;;;;;;5020119;28;20438;-59
2023/01/05 08:49:05;;;;;;;3.63;1.60;;;14.30;66.10;;;;;;5028813;28;20448;-60
2023/01/05 08:51:31;;;;;;;5.63;1.60;;;14.40;66.30;;;;;;5029056;28;20458;-59
2023/01/05 08:53:57;;;;;;;7.13;1.90;;;14.50;65.80;;;;;;5022956;28;20471;-60
2023/01/05 08:56:25;;;;;;;3.87;1.40;;;14.50;65.90;;;;;;5026745;28;20995;-59
2023/01/05 08:58:51;;;;;;;7.47;2.13;;;14.50;65.80;;;;;;5024058;28;20196;-60
2023/01/05 09:01:19;;;;;;;12.73;2.10;;;14.40;66.00;;;;;;5019439;28;20482;-60
2023/01/05 09:03:45;;;;;;;3.20;1.60;;;14.40;66.20;;;;;;5028988;28;20498;-60
2023/01/05 09:06:12;;;;;;;2.00;1.53;;;14.60;66.40;;;;;;5024675;28;20428;-59
2023/01/05 09:08:40;;;;;;;4.67;2.10;;;14.70;65.80;;;;;;5026627;28;20586;-60
2023/01/05 09:11:16;;;;;;;2.90;1.50;;;14.60;66.60;;;;;;5027493;28;20448;-60
2023/01/05 09:14:03;;;;;;;3.63;1.50;;;14.90;65.80;;;;;;5024261;28;20502;-60
2023/01/05 09:16:31;;;;;;;5.93;2.20;;;14.80;65.50;;;;;;5030055;28;20489;-60
2023/01/05 09:18:58;;;;;;;6.00;3.03;;;14.90;64.90;;;;;;5030295;28;20468;-60
2023/01/05 09:21:24;;;;;;;7.90;1.60;;;14.70;64.40;;;;;;5026865;28;20801;-60
2023/01/05 09:23:50;;;;;;;7.30;2.17;;;14.70;64.30;;;;;;5026703;28;20439;-59
2023/01/05 09:26:16;;;;;;;4.57;1.80;;;14.90;63.90;;;;;;5019779;28;20437;-59
2023/01/05 09:28:43;;;;;;;4.67;1.50;;;14.70;62.50;;;;;;5024155;28;20971;-59
2023/01/05 09:31:14;;;;;;;4.43;1.97;;;14.60;62.70;;;;;;5016165;28;20475;-60
2023/01/05 09:33:40;;;;;;;8.27;2.43;;;14.70;62.50;;;;;;5022319;28;20440;-59
2023/01/05 09:36:07;;;;;;;7.67;2.30;;;14.80;61.60;;;;;;5026806;28;20917;-59
2023/01/05 09:38:33;;;;;;;7.03;1.53;;;14.90;60.70;;;;;;5023460;28;20523;-60
2023/01/05 09:41:25;;;;;;;4.30;1.90;;;14.80;59.70;;;;;;5022759;28;21038;-59
2023/01/05 09:43:55;;;;;;;3.57;1.67;;;14.90;60.00;;;;;;5005203;28;20451;-60
2023/01/05 09:46:25;;;;;;;4.30;2.00;;;14.80;58.90;;;;;;5020113;28;20440;-59
2023/01/05 09:48:57;;;;;;;7.60;2.33;;;14.70;59.40;;;;;;5028128;28;20491;-60
2023/01/05 09:51:23;;;;;;;9.40;2.27;;;14.70;59.40;;;;;;5024696;28;21726;-60
2023/01/05 09:53:49;;;;;;;11.63;3.00;;;14.70;59.20;;;;;;5029926;28;20440;-59
2023/01/05 09:56:33;;;;;;;7.77;1.83;;;14.70;58.70;;;;;;5026567;28;20463;-59
2023/01/05 09:59:14;;;;;;;10.40;2.27;;;14.50;58.10;;;;;;5016523;28;20788;-60
2023/01/05 10:01:41;;;;;;;9.50;2.27;;;14.50;59.00;;;;;;5025714;28;20436;-60
2023/01/05 10:04:18;;;;;;;6.27;2.77;;;14.70;58.80;;;;;;5014911;28;20828;-59
2023/01/05 10:06:48;;;;;;;13.00;3.70;;;14.60;58.10;;;;;;5013604;28;20448;-60
2023/01/05 10:09:23;;;;;;;5.50;1.50;;;14.40;58.80;;;;;;5016239;28;20526;-60
2023/01/05 10:14:51;;;;;;;10.23;2.77;;;14.60;59.00;;;;;;5023634;28;20447;-59
2023/01/05 10:17:20;;;;;;;5.83;2.27;;;14.70;58.90;;;;;;5024768;28;20444;-60
2023/01/05 10:19:47;;;;;;;8.17;2.77;;;14.50;58.50;;;;;;5017641;28;20566;-60
2023/01/05 10:22:31;;;;;;;4.47;2.50;;;14.50;58.80;;;;;;5019795;28;20535;-60
2023/01/05 10:25:03;;;;;;;7.40;2.27;;;14.70;59.00;;;;;;5013470;28;20440;-60
2023/01/05 10:27:54;;;;;;;5.23;2.00;;;14.50;58.20;;;;;;5011921;28;20579;-60
2023/01/05 10:30:28;;;;;;;8.60;2.17;;;14.60;58.70;;;;;;5001498;28;20444;-60
2023/01/05 10:32:59;;;;;;;10.50;1.90;;;14.70;58.60;;;;;;5018431;28;20452;-61
2023/01/05 10:35:58;;;;;;;8.97;2.30;;;15.00;58.20;;;;;;5024759;28;20464;-60
2023/01/05 10:38:43;;;;;;;10.43;2.70;;;14.90;57.40;;;;;;5027619;28;20454;-60
2023/01/05 10:41:25;;;;;;;11.00;2.03;;;14.80;57.90;;;;;;5025378;28;20451;-60
2023/01/05 10:43:59;;;;;;;9.67;2.17;;;14.80;57.90;;;;;;5017066;28;20564;-60
2023/01/05 10:46:25;;;;;;;11.30;2.80;;;14.90;58.00;;;;;;5021719;28;20501;-60
2023/01/05 10:48:51;;;;;;;10.43;2.23;;;14.90;57.60;;;;;;5028101;28;20971;-60
2023/01/05 10:51:17;;;;;;;9.00;2.10;;;14.80;57.50;;;;;;5022231;28;20213;-60
2023/01/05 10:53:43;;;;;;;6.70;2.47;;;15.00;58.40;;;;;;5024468;28;20201;-60
2023/01/05 10:56:21;;;;;;;8.90;2.93;;;15.10;57.80;;;;;;5020697;28;20466;-60
2023/01/05 10:58:47;;;;;;;9.00;2.03;;;15.00;57.30;;;;;;5028491;28;20470;-60
2023/01/05 11:01:26;;;;;;;8.20;2.90;;;14.90;57.50;;;;;;5022448;28;20919;-60
2023/01/05 11:03:55;;;;;;;7.97;2.07;;;15.20;57.30;;;;;;5026200;28;20251;-60
2023/01/05 11:06:27;;;;;;;6.27;2.10;;;15.50;56.80;;;;;;5028035;28;20509;-60
2023/01/05 11:08:53;;;;;;;10.50;3.00;;;15.50;56.70;;;;;;5025973;28;20533;-60
2023/01/05 11:11:24;;;;;;;7.47;2.03;;;15.30;56.40;;;;;;5026883;28;21002;-60
2023/01/05 11:13:54;;;;;;;8.33;2.20;;;15.20;57.00;;;;;;5029929;28;20424;-60
2023/01/05 11:16:23;;;;;;;9.57;2.43;;;15.40;56.80;;;;;;5029560;28;20431;-60
2023/01/05 11:19:00;;;;;;;6.33;2.20;;;15.50;56.30;;;;;;5026544;28;20950;-60
2023/01/05 11:21:35;;;;;;;6.10;2.83;;;15.50;56.10;;;;;;5024836;28;20515;-60
2023/01/05 11:24:02;;;;;;;13.47;2.60;;;15.50;56.00;;;;;;5020874;28;20443;-60
2023/01/05 11:26:33;;;;;;;10.00;2.17;;;15.30;55.90;;;;;;5024783;28;20519;-60
2023/01/05 11:29:08;;;;;;;6.63;2.70;;;15.20;56.10;;;;;;5019818;28;20825;-60
2023/01/05 11:31:50;;;;;;;6.60;2.20;;;15.40;56.10;;;;;;5022108;28;20470;-60
2023/01/05 11:34:42;;;;;;;9.30;2.80;;;15.60;56.00;;;;;;5020164;28;20458;-60
2023/01/05 11:37:10;;;;;;;7.50;2.37;;;15.50;55.70;;;;;;5024250;28;20454;-59
2023/01/05 11:39:45;;;;;;;8.53;2.47;;;15.20;55.70;;;;;;5026819;28;20842;-60
2023/01/05 11:42:35;;;;;;;9.73;2.70;;;15.20;56.20;;;;;;5012637;28;20447;-60
2023/01/05 11:45:06;;;;;;;9.83;2.37;;;15.20;55.50;;;;;;5021379;28;20494;-60
2023/01/05 11:47:47;;;;;;;8.60;2.20;;;15.10;55.80;;;;;;5021206;28;20521;-60
2023/01/05 11:50:13;;;;;;;10.60;2.40;;;15.00;56.00;;;;;;5028499;28;20474;-60
2023/01/05 11:52:49;;;;;;;7.80;2.30;;;15.00;56.10;;;;;;5025376;28;20444;-60
2023/01/05 11:55:40;;;;;;;6.70;2.50;;;15.20;56.30;;;;;;5028356;28;20250;-60
2023/01/05 11:58:08;;;;;;;10.50;3.10;;;15.20;55.70;;;;;;5030246;28;20787;-60
2023/01/05 12:00:42;;;;;;;10.77;4.00;;;15.50;55.40;;;;;;5029739;28;20784;-59
2023/01/05 12:03:20;;;;;;;10.93;2.80;;;15.40;55.50;;;;;;5029865;28;20553;-59
2023/01/05 12:05:53;;;;;;;7.37;2.50;;;15.20;55.90;;;;;;5031320;28;20432;-60
2023/01/05 12:08:44;;;;;;;7.07;2.23;;;15.30;55.60;;;;;;5032386;28;20553;-60
2023/01/05 12:11:18;;;;;;;15.63;2.90;;;15.20;55.40;;;;;;5029897;28;20519;-60
2023/01/05 12:14:00;;;;;;;6.00;2.27;;;15.00;55.70;;;;;;5030464;28;21011;-59
2023/01/05 12:16:43;;;;;;;5.73;2.00;;;15.20;55.70;;;;;;5031250;28;20440;-60
2023/01/05 12:19:24;;;;;;;7.20;2.30;;;15.10;55.60;;;;;;5029869;28;20455;-60
2023/01/05 12:22:20;;;;;;;9.80;5.20;;;15.30;55.70;;;;;;5031185;28;20440;-60
2023/01/05 12:25:21;;;;;;;14.27;3.80;;;15.20;55.70;;;;;;5031483;28;20468;-60
2023/01/05 12:28:12;;;;;;;13.17;2.77;;;15.20;56.00;;;;;;4958227;28;20916;-60
2023/01/05 12:30:54;;;;;;;6.20;2.03;;;15.30;55.90;;;;;;5017020;28;20453;-60
2023/01/05 12:33:31;;;;;;;7.23;2.13;;;15.40;55.90;;;;;;5028600;28;20483;-60
2023/01/05 12:36:15;;;;;;;9.23;3.00;;;15.50;55.70;;;;;;5027258;28;20981;-60
2023/01/05 12:39:20;;;;;;;10.43;3.10;;;15.70;55.50;;;;;;5017234;28;20447;-59
2023/01/05 12:42:22;;;;;;;6.40;2.30;;;15.70;55.30;;;;;;5022634;28;20455;-59
2023/01/05 12:45:28;;;;;;;10.73;2.70;;;15.60;55.40;;;;;;5013898;28;20459;-60
2023/01/05 12:48:23;;;;;;;4.43;2.17;;;15.50;55.80;;;;;;5024372;28;20557;-59
2023/01/05 12:51:08;;;;;;;8.00;2.67;;;15.40;55.60;;;;;;5026895;28;20862;-60
2023/01/05 12:53:34;;;;;;;8.03;2.47;;;15.10;56.10;;;;;;5029067;28;20459;-59
2023/01/05 12:56:11;;;;;;;7.50;2.27;;;15.00;56.10;;;;;;5028002;28;20443;-59
2023/01/05 12:58:43;;;;;;;11.27;2.93;;;15.00;56.60;;;;;;5017030;28;20185;-59
2023/01/05 13:01:18;;;;;;;8.20;2.30;;;15.10;56.30;;;;;;5029006;28;20463;-60
2023/01/05 13:03:51;;;;;;;7.37;2.00;;;15.00;56.30;;;;;;5022280;28;20614;-60
2023/01/05 13:06:21;;;;;;;4.57;2.20;;;15.10;56.40;;;;;;5028897;28;20959;-59
2023/01/05 13:08:57;;;;;;;7.67;2.17;;;15.20;56.50;;;;;;5024115;28;20492;-59
2023/01/05 13:11:58;;;;;;;8.40;2.13;;;15.20;56.30;;;;;;5016206;28;20452;-60
2023/01/05 13:14:28;;;;;;;9.23;2.20;;;15.20;56.00;;;;;;5026807;28;20449;-59
2023/01/05 13:17:20;;;;;;;8.97;2.87;;;15.20;56.50;;;;;;5024806;28;20451;-60
2023/01/05 13:19:48;;;;;;;12.27;2.83;;;15.20;56.10;;;;;;5027594;28;20437;-59
2023/01/05 13:22:24;;;;;;;10.70;2.60;;;15.20;56.70;;;;;;5024123;28;20949;-59
2023/01/05 13:25:05;;;;;;;8.30;2.70;;;15.40;56.30;;;;;;5025740;28;20460;-59
2023/01/05 13:27:31;;;;;;;13.30;3.10;;;15.30;56.20;;;;;;5026711;28;20493;-59
2023/01/05 13:29:59;;;;;;;12.80;3.73;;;15.40;56.20;;;;;;5026973;28;20420;-59
2023/01/05 13:32:39;;;;;;;13.17;4.00;;;15.30;56.50;;;;;;5016524;28;20455;-59
2023/01/05 13:35:23;;;;;;;13.17;3.17;;;15.40;56.30;;;;;;5024826;28;20817;-59
2023/01/05 13:38:21;;;;;;;10.73;3.07;;;15.30;56.10;;;;;;5013230;28;20916;-60